createdAt,value
2017-10-17T00:00:08.232Z,65.12
2017-10-17T00:02:37.318Z,65.26
2017-10-17T00:05:05.632Z,65.21
2017-10-17T00:07:34.336Z,65.27
2017-10-17T00:10:03.055Z,65.76
2017-10-17T00:12:31.618Z,65.90
2017-10-17T00:15:00.009Z,66.19
2017-10-17T00:17:28.320Z,66.35
2017-10-17T00:19:56.835Z,66.73
2017-10-17T00:22:26.009Z,66.86
2017-10-17T00:25:00.593Z,67.25
2017-10-17T00:27:29.093Z,67.53
2017-10-17T00:29:57.708Z,67.64
2017-10-17T00:32:26.651Z,67.92
2017-10-17T00:34:55.365Z,68.28
2017-10-17T00:37:23.681Z,68.54
2017-10-17T00:39:52.017Z,68.54
2017-10-17T00:42:20.608Z,68.83
2017-10-17T00:44:48.991Z,68.81
2017-10-17T00:47:17.314Z,68.72
2017-10-17T00:49:45.949Z,68.73
2017-10-17T00:52:15.158Z,68.94
2017-10-17T00:54:43.598Z,68.96
2017-10-17T00:57:12.242Z,68.88
2017-10-17T00:59:40.939Z,68.73
2017-10-17T01:02:09.331Z,68.74
2017-10-17T01:04:37.912Z,68.88
2017-10-17T01:07:06.485Z,68.67
2017-10-17T01:09:34.979Z,68.73
2017-10-17T01:12:03.453Z,68.83
2017-10-17T01:14:31.757Z,68.76
2017-10-17T01:17:00.339Z,68.91
2017-10-17T01:19:28.691Z,68.85
2017-10-17T01:21:57.297Z,68.65
2017-10-17T01:24:25.893Z,68.47
2017-10-17T01:26:54.364Z,68.26
2017-10-17T01:29:26.145Z,67.78
2017-10-17T01:31:54.952Z,67.35
2017-10-17T01:34:27.783Z,67.34
2017-10-17T01:36:57.113Z,66.92
2017-10-17T01:39:25.415Z,66.85
2017-10-17T01:41:55.281Z,66.54
2017-10-17T01:44:34.943Z,66.58
2017-10-17T01:47:08.659Z,66.40
2017-10-17T01:49:42.484Z,66.37
2017-10-17T01:52:14.392Z,66.29
2017-10-17T01:57:46.777Z,66.23
2017-10-17T02:00:18.473Z,66.43
2017-10-17T02:02:46.775Z,66.57
2017-10-17T02:05:15.111Z,66.81
2017-10-17T02:07:45.780Z,66.92
2017-10-17T02:10:29.060Z,67.14
2017-10-17T02:12:59.050Z,67.25
2017-10-17T02:15:27.350Z,67.43
2017-10-17T02:18:03.039Z,67.78
2017-10-17T02:20:31.476Z,68.06
2017-10-17T02:23:00.038Z,68.40
2017-10-17T02:25:34.898Z,68.75
2017-10-17T02:28:15.676Z,68.99
2017-10-17T02:30:46.233Z,69.20
2017-10-17T02:33:14.549Z,69.36
2017-10-17T02:35:43.131Z,69.69
2017-10-17T02:38:12.076Z,69.93
2017-10-17T02:40:44.631Z,70.09
2017-10-17T02:43:18.181Z,70.04
2017-10-17T02:45:46.654Z,70.22
2017-10-17T02:51:08.469Z,70.15
2017-10-17T02:53:37.702Z,70.32
2017-10-17T02:56:06.018Z,70.17
2017-10-17T02:58:34.334Z,70.15
2017-10-17T03:01:15.268Z,70.35
2017-10-17T03:03:47.003Z,70.36
2017-10-17T03:06:15.596Z,70.26
2017-10-17T03:08:43.942Z,70.44
2017-10-17T03:11:13.018Z,70.46
2017-10-17T03:13:50.459Z,70.69
2017-10-17T03:16:18.841Z,70.65
2017-10-17T03:18:47.144Z,71.15
2017-10-17T03:21:15.466Z,71.09
2017-10-17T03:23:47.407Z,71.08
2017-10-17T03:26:15.740Z,70.99
2017-10-17T03:28:49.581Z,71.24
2017-10-17T03:31:19.637Z,71.60
2017-10-17T03:33:47.963Z,71.79
2017-10-17T03:36:24.844Z,71.79
2017-10-17T03:38:54.134Z,71.85
2017-10-17T03:41:33.227Z,71.86
2017-10-17T03:46:58.032Z,71.75
2017-10-17T03:49:38.081Z,71.83
2017-10-17T03:52:21.718Z,72.00
2017-10-17T03:54:51.000Z,72.35
2017-10-17T03:57:20.914Z,72.55
2017-10-17T03:59:53.759Z,72.59
2017-10-17T04:02:22.089Z,72.63
2017-10-17T04:08:21.152Z,72.12
2017-10-17T04:11:27.896Z,71.87
2017-10-17T04:17:28.697Z,71.50
2017-10-17T04:23:22.581Z,71.63
2017-10-17T04:25:57.913Z,71.62
2017-10-17T04:28:45.218Z,71.70
2017-10-17T04:31:21.836Z,71.75
2017-10-17T04:34:18.520Z,71.86
2017-10-17T04:36:51.263Z,71.77
2017-10-17T04:39:19.582Z,71.99
2017-10-17T04:41:56.539Z,72.35
2017-10-17T04:58:06.277Z,72.98
2017-10-17T05:00:34.784Z,73.19
2017-10-17T05:06:11.625Z,73.40
2017-10-17T05:08:51.093Z,73.61
2017-10-17T05:11:25.146Z,73.58
2017-10-17T05:14:27.203Z,73.70
2017-10-17T05:17:08.890Z,73.86
2017-10-17T05:33:31.956Z,74.48
2017-10-17T05:36:01.044Z,74.96
2017-10-17T05:38:30.298Z,75.02
2017-10-17T05:40:58.756Z,75.12
2017-10-17T05:43:39.411Z,75.35
2017-10-17T05:46:07.873Z,75.43
2017-10-17T05:48:36.978Z,75.63
2017-10-17T05:54:01.324Z,75.97
2017-10-17T05:56:29.665Z,76.12
2017-10-17T05:58:58.000Z,76.28
2017-10-17T06:01:26.339Z,76.30
2017-10-17T06:03:54.630Z,76.20
2017-10-17T06:06:22.948Z,76.22
2017-10-17T06:08:51.289Z,76.44
2017-10-17T06:11:20.250Z,76.53
2017-10-17T06:13:49.320Z,76.67
2017-10-17T06:16:17.654Z,76.77
2017-10-17T06:18:45.964Z,76.80
2017-10-17T06:21:14.268Z,76.80
2017-10-17T06:23:42.578Z,76.84
2017-10-17T06:26:11.672Z,77.04
2017-10-17T06:28:40.749Z,77.00
2017-10-17T06:31:09.474Z,76.94
2017-10-17T06:33:38.558Z,76.96
2017-10-17T06:36:07.659Z,77.09
2017-10-17T06:38:36.738Z,77.17
2017-10-17T06:41:05.072Z,77.20
2017-10-17T06:43:33.399Z,77.25
2017-10-17T06:46:01.710Z,77.33
2017-10-17T06:48:30.784Z,77.25
2017-10-17T06:50:59.886Z,77.26
2017-10-17T06:53:28.209Z,77.27
2017-10-17T06:55:56.529Z,77.33
2017-10-17T06:58:24.831Z,77.35
2017-10-17T07:00:53.149Z,77.32
2017-10-17T07:03:21.478Z,77.34
2017-10-17T07:05:49.810Z,77.42
2017-10-17T07:08:18.116Z,77.36
2017-10-17T07:10:46.460Z,77.45
2017-10-17T07:13:15.552Z,77.44
2017-10-17T07:15:44.638Z,77.33
2017-10-17T07:18:12.960Z,77.32
2017-10-17T07:20:41.271Z,77.21
2017-10-17T07:23:09.614Z,77.26
2017-10-17T07:25:37.925Z,77.26
2017-10-17T07:28:06.250Z,77.17
2017-10-17T07:30:35.337Z,77.20
2017-10-17T07:33:03.665Z,77.15
2017-10-17T07:35:31.973Z,76.89
2017-10-17T07:38:00.306Z,76.57
2017-10-17T07:40:29.390Z,76.55
2017-10-17T07:42:58.469Z,76.37
2017-10-17T07:45:26.797Z,76.35
2017-10-17T07:47:55.104Z,76.21
2017-10-17T07:50:23.420Z,75.96
2017-10-17T07:52:51.760Z,75.85
2017-10-17T07:55:20.071Z,75.86
2017-10-17T07:57:48.392Z,75.70
2017-10-17T08:00:16.723Z,75.59
2017-10-17T08:02:45.033Z,75.54
2017-10-17T08:05:13.383Z,75.72
2017-10-17T08:07:41.719Z,75.79
2017-10-17T08:10:10.018Z,75.72
2017-10-17T08:12:38.336Z,75.54
2017-10-17T08:15:06.642Z,75.26
2017-10-17T08:17:34.969Z,75.32
2017-10-17T08:20:03.342Z,75.08
2017-10-17T08:22:31.652Z,74.84
2017-10-17T08:25:00.789Z,74.74
2017-10-17T08:27:29.199Z,74.55
2017-10-17T08:29:57.518Z,74.66
2017-10-17T08:32:25.868Z,74.29
2017-10-17T08:34:54.180Z,74.24
2017-10-17T08:37:22.491Z,74.22
2017-10-17T08:39:50.802Z,74.11
2017-10-17T08:42:19.117Z,73.97
2017-10-17T08:44:47.435Z,73.87
2017-10-17T08:47:16.531Z,73.70
2017-10-17T08:49:44.837Z,73.79
2017-10-17T08:52:15.453Z,73.46
2017-10-17T08:54:44.529Z,73.32
2017-10-17T08:57:12.857Z,73.37
2017-10-17T08:59:41.953Z,73.51
2017-10-17T09:02:10.272Z,73.42
2017-10-17T09:04:38.616Z,73.17
2017-10-17T09:07:06.947Z,73.11
2017-10-17T09:09:36.115Z,72.97
2017-10-17T09:12:04.501Z,72.58
2017-10-17T09:14:32.819Z,72.64
2017-10-17T09:17:01.147Z,72.14
2017-10-17T09:19:29.469Z,71.71
2017-10-17T09:21:57.761Z,71.38
2017-10-17T09:24:26.071Z,71.21
2017-10-17T09:26:55.166Z,70.80
2017-10-17T09:29:23.482Z,70.72
2017-10-17T09:31:51.802Z,70.49
2017-10-17T09:34:20.099Z,70.01
2017-10-17T09:36:48.416Z,69.57
2017-10-17T09:39:17.589Z,69.21
2017-10-17T09:41:46.659Z,69.05
2017-10-17T09:44:14.969Z,69.17
2017-10-17T09:46:44.049Z,69.01
2017-10-17T09:49:12.387Z,67.87
2017-10-17T09:51:40.689Z,67.10
2017-10-17T09:54:09.022Z,66.96
2017-10-17T09:56:37.364Z,66.50
2017-10-17T09:59:05.671Z,66.20
2017-10-17T10:01:33.987Z,65.43
2017-10-17T10:04:02.287Z,65.04
2017-10-17T10:06:30.610Z,65.26
2017-10-17T10:08:58.981Z,65.60
2017-10-17T10:11:27.317Z,65.89
2017-10-17T10:13:55.636Z,66.31
2017-10-17T10:16:23.964Z,66.75
2017-10-17T10:18:53.003Z,67.35
2017-10-17T10:21:21.361Z,67.50
2017-10-17T10:23:49.683Z,67.62
2017-10-17T10:26:18.006Z,67.88
2017-10-17T10:28:46.341Z,67.82
2017-10-17T10:31:14.661Z,67.52
2017-10-17T10:33:43.750Z,67.61
2017-10-17T10:36:12.861Z,67.62
2017-10-17T10:38:41.943Z,67.34
2017-10-17T10:41:10.265Z,66.79
2017-10-17T10:43:38.673Z,67.34
2017-10-17T10:46:07.001Z,67.40
2017-10-17T10:48:36.090Z,66.23
2017-10-17T10:51:04.408Z,65.89
2017-10-17T10:53:32.690Z,66.85
2017-10-17T10:56:01.004Z,68.24
2017-10-17T10:58:29.320Z,68.29
2017-10-17T11:00:58.377Z,67.97
2017-10-17T11:03:26.698Z,67.42
2017-10-17T11:05:55.776Z,67.08
2017-10-17T11:08:24.093Z,65.97
2017-10-17T11:10:52.466Z,65.43
2017-10-17T11:13:20.832Z,65.12
2017-10-17T11:15:49.173Z,65.20
2017-10-17T11:18:17.485Z,65.17
2017-10-17T11:20:45.829Z,65.23
2017-10-17T11:23:14.914Z,65.46
2017-10-17T11:25:43.221Z,66.13
2017-10-17T11:28:12.282Z,66.81
2017-10-17T11:30:40.592Z,67.55
2017-10-17T11:33:08.897Z,67.86
2017-10-17T11:35:37.242Z,67.81
2017-10-17T11:38:05.633Z,68.03
2017-10-17T11:40:51.841Z,68.34
2017-10-17T11:43:37.913Z,67.94
2017-10-17T11:46:06.253Z,67.44
2017-10-17T11:48:34.591Z,67.40
2017-10-17T11:51:02.917Z,67.23
2017-10-17T11:53:32.024Z,67.31
2017-10-17T11:56:00.469Z,67.22
2017-10-17T11:58:28.802Z,67.07
2017-10-17T12:00:57.123Z,67.09
2017-10-17T12:03:25.409Z,66.95
2017-10-17T12:05:53.747Z,66.83
2017-10-17T12:08:22.058Z,67.21
2017-10-17T12:10:50.413Z,67.15
2017-10-17T12:13:18.739Z,66.62
2017-10-17T12:15:47.040Z,65.42
2017-10-17T12:18:16.137Z,64.60
2017-10-17T12:20:44.483Z,64.58
2017-10-17T12:23:12.788Z,64.58
2017-10-17T12:25:41.146Z,64.25
2017-10-17T12:28:09.465Z,64.04
2017-10-17T12:30:37.790Z,63.76
2017-10-17T12:33:06.121Z,63.96
2017-10-17T12:35:34.432Z,64.29
2017-10-17T12:38:02.745Z,64.29
2017-10-17T12:40:31.158Z,64.52
2017-10-17T12:42:59.490Z,64.86
2017-10-17T12:45:27.815Z,64.39
2017-10-17T12:47:56.149Z,63.83
2017-10-17T12:50:24.547Z,63.67
2017-10-17T12:52:52.856Z,63.42
2017-10-17T12:55:21.254Z,62.71
2017-10-17T12:57:49.581Z,62.71
2017-10-17T13:00:17.902Z,62.41
2017-10-17T13:02:46.211Z,62.48
2017-10-17T13:05:15.304Z,62.10
2017-10-17T13:07:44.481Z,61.70
2017-10-17T13:10:13.382Z,61.60
2017-10-17T13:12:41.721Z,60.81
2017-10-17T13:15:10.131Z,60.31
2017-10-17T13:17:38.458Z,60.63
2017-10-17T13:20:07.576Z,60.30
2017-10-17T13:22:35.899Z,59.59
2017-10-17T13:25:05.073Z,59.17
2017-10-17T13:27:33.386Z,59.28
2017-10-17T13:30:01.702Z,59.39
2017-10-17T13:32:30.046Z,59.48
2017-10-17T13:34:58.377Z,59.64
2017-10-17T13:37:26.694Z,59.76
2017-10-17T13:39:55.021Z,58.94
2017-10-17T13:42:24.128Z,58.66
2017-10-17T13:44:53.202Z,58.74
2017-10-17T13:47:21.524Z,58.72
2017-10-17T13:49:49.832Z,59.05
2017-10-17T13:52:18.155Z,59.64
2017-10-17T13:54:48.118Z,59.41
2017-10-17T13:57:16.451Z,59.84
2017-10-17T13:59:45.596Z,59.65
2017-10-17T14:02:13.913Z,59.54
2017-10-17T14:04:42.310Z,59.92
2017-10-17T14:07:10.662Z,59.42
2017-10-17T14:09:38.993Z,59.36
2017-10-17T14:12:08.089Z,59.67
2017-10-17T14:14:37.178Z,59.90
2017-10-17T14:17:05.493Z,60.35
2017-10-17T14:19:33.847Z,60.53
2017-10-17T14:22:02.164Z,60.73
2017-10-17T14:24:30.476Z,60.64
2017-10-17T14:26:59.559Z,60.96
2017-10-17T14:29:27.896Z,61.37
2017-10-17T14:31:56.986Z,61.66
2017-10-17T14:34:25.385Z,61.71
2017-10-17T14:36:53.737Z,61.59
2017-10-17T14:39:22.059Z,61.54
2017-10-17T14:41:50.466Z,61.90
2017-10-17T14:44:18.839Z,62.00
2017-10-17T14:46:47.190Z,61.89
2017-10-17T14:49:16.260Z,62.01
2017-10-17T14:51:44.682Z,61.79
2017-10-17T14:54:13.780Z,62.15
2017-10-17T14:56:42.124Z,62.26
2017-10-17T14:59:10.441Z,62.11
2017-10-17T15:01:39.511Z,61.97
2017-10-17T15:04:07.840Z,61.94
2017-10-17T15:06:36.144Z,61.88
2017-10-17T15:09:04.443Z,61.83
2017-10-17T15:11:32.777Z,61.71
2017-10-17T15:14:01.103Z,61.78
2017-10-17T15:16:29.416Z,61.95
2017-10-17T15:18:58.519Z,62.08
2017-10-17T15:21:27.642Z,62.05
2017-10-17T15:23:55.969Z,62.02
2017-10-17T15:26:24.279Z,62.04
2017-10-17T15:28:53.368Z,62.02
2017-10-17T15:31:21.721Z,62.15
2017-10-17T15:33:50.023Z,62.33
2017-10-17T15:36:18.356Z,62.41
2017-10-17T15:38:46.755Z,62.57
2017-10-17T15:41:15.108Z,62.88
2017-10-17T15:43:43.524Z,62.77
2017-10-17T15:46:11.841Z,63.01
2017-10-17T15:48:40.169Z,63.22
2017-10-17T15:51:08.475Z,63.33
2017-10-17T15:53:36.825Z,63.47
2017-10-17T15:56:05.138Z,63.79
2017-10-17T15:58:33.455Z,64.13
2017-10-17T16:01:02.581Z,64.23
2017-10-17T16:03:31.051Z,64.31
2017-10-17T16:06:00.187Z,64.42
2017-10-17T16:08:29.127Z,64.59
2017-10-17T16:10:57.445Z,64.66
2017-10-17T16:13:25.773Z,64.58
2017-10-17T16:15:54.103Z,64.59
2017-10-17T16:18:22.611Z,65.16
2017-10-17T16:20:50.940Z,65.47
2017-10-17T16:23:20.046Z,65.46
2017-10-17T16:25:49.117Z,65.44
2017-10-17T16:28:17.441Z,65.54
2017-10-17T16:30:45.815Z,65.71
2017-10-17T16:33:14.893Z,66.28
2017-10-17T16:35:43.224Z,66.50
2017-10-17T16:38:11.550Z,66.44
2017-10-17T16:40:39.891Z,66.59
2017-10-17T16:43:08.213Z,66.65
2017-10-17T16:45:36.548Z,66.74
2017-10-17T16:48:04.863Z,66.85
2017-10-17T16:50:33.195Z,67.15
2017-10-17T16:53:01.523Z,70.14
2017-10-17T16:55:29.858Z,72.40
2017-10-17T16:57:58.175Z,74.27
2017-10-17T17:00:26.529Z,75.53
2017-10-17T17:02:54.893Z,76.73
2017-10-17T17:05:23.974Z,76.77
2017-10-17T17:07:52.287Z,76.46
2017-10-17T17:10:20.625Z,76.59
2017-10-17T17:12:49.205Z,76.68
2017-10-17T17:15:17.533Z,76.60
2017-10-17T17:17:45.855Z,76.49
2017-10-17T17:20:14.164Z,75.89
2017-10-17T17:22:42.485Z,76.16
2017-10-17T17:25:10.799Z,76.60
2017-10-17T17:27:39.115Z,76.74
2017-10-17T17:30:08.193Z,76.75
2017-10-17T17:32:36.508Z,77.07
2017-10-17T17:35:04.841Z,77.12
2017-10-17T17:37:33.171Z,77.37
2017-10-17T17:40:02.246Z,77.64
2017-10-17T17:42:32.178Z,78.10
2017-10-17T17:45:01.267Z,78.00
2017-10-17T17:47:29.591Z,77.96
2017-10-17T17:49:57.910Z,77.74
2017-10-17T17:52:26.231Z,77.71
2017-10-17T17:54:55.313Z,78.20
2017-10-17T17:57:24.427Z,78.64
2017-10-17T17:59:53.491Z,78.53
2017-10-17T18:02:22.763Z,78.12
2017-10-17T18:04:51.131Z,78.03
2017-10-17T18:07:23.454Z,78.36
2017-10-17T18:09:51.841Z,78.21
2017-10-17T18:12:20.275Z,77.92
2017-10-17T18:14:49.433Z,77.88
2017-10-17T18:17:18.843Z,78.16
2017-10-17T18:19:47.189Z,78.46
2017-10-17T18:22:15.497Z,78.83
2017-10-17T18:24:43.819Z,78.68
2017-10-17T18:27:22.758Z,78.52
2017-10-17T18:29:56.369Z,78.25
2017-10-17T18:32:30.792Z,78.36
2017-10-17T18:35:01.449Z,78.37
2017-10-17T18:37:34.467Z,78.59
2017-10-17T18:40:07.023Z,78.74
2017-10-17T18:42:41.433Z,79.05
2017-10-17T18:45:17.747Z,79.01
2017-10-17T18:47:48.034Z,79.22
2017-10-17T18:50:24.763Z,79.33
2017-10-17T18:52:54.720Z,79.43
2017-10-17T18:55:24.718Z,79.49
2017-10-17T18:57:58.139Z,79.65
2017-10-17T19:00:31.460Z,80.63
2017-10-17T19:03:04.571Z,80.44
2017-10-17T19:05:32.994Z,80.05
2017-10-17T19:08:01.317Z,80.11
2017-10-17T19:10:29.655Z,80.11
2017-10-17T19:12:58.033Z,80.21
2017-10-17T19:15:26.539Z,80.22
2017-10-17T19:17:54.858Z,80.26
2017-10-17T19:20:23.183Z,80.04
2017-10-17T19:22:51.590Z,79.81
2017-10-17T19:25:19.908Z,79.97
2017-10-17T19:27:48.214Z,80.30
2017-10-17T19:30:16.537Z,80.37
2017-10-17T19:32:44.868Z,80.35
2017-10-17T19:35:13.167Z,80.50
2017-10-17T19:37:41.497Z,80.46
2017-10-17T19:40:10.566Z,80.61
2017-10-17T19:42:38.871Z,80.68
2017-10-17T19:45:07.997Z,80.77
2017-10-17T19:47:36.300Z,80.94
2017-10-17T19:50:04.632Z,81.14
2017-10-17T19:52:33.730Z,81.17
2017-10-17T19:55:02.824Z,81.16
2017-10-17T19:57:31.140Z,81.24
2017-10-17T19:59:59.466Z,81.54
2017-10-17T20:02:27.918Z,81.50
2017-10-17T20:04:56.228Z,81.58
2017-10-17T20:07:25.267Z,81.34
2017-10-17T20:09:54.361Z,81.16
2017-10-17T20:12:23.458Z,80.92
2017-10-17T20:14:52.548Z,80.96
2017-10-17T20:17:21.640Z,80.92
2017-10-17T20:19:49.981Z,80.79
2017-10-17T20:22:18.285Z,80.77
2017-10-17T20:24:46.589Z,80.65
2017-10-17T20:27:14.923Z,80.66
2017-10-17T20:29:43.311Z,80.73
2017-10-17T20:32:11.664Z,81.04
2017-10-17T20:34:39.972Z,81.27
2017-10-17T20:37:08.322Z,81.47
2017-10-17T20:39:36.701Z,81.79
2017-10-17T20:42:05.014Z,82.10
2017-10-17T20:44:33.338Z,82.29
2017-10-17T20:47:01.749Z,82.44
2017-10-17T20:49:30.066Z,82.69
2017-10-17T20:51:58.402Z,82.96
2017-10-17T20:54:27.501Z,83.08
2017-10-17T20:56:56.596Z,83.00
2017-10-17T20:59:25.674Z,83.08
2017-10-17T21:01:54.000Z,83.14
2017-10-17T21:04:22.339Z,83.21
2017-10-17T21:06:50.672Z,83.44
2017-10-17T21:09:19.442Z,83.71
2017-10-17T21:11:47.757Z,83.83
2017-10-17T21:14:16.104Z,83.93
2017-10-17T21:16:44.431Z,83.96
2017-10-17T21:19:12.767Z,84.07
2017-10-17T21:21:41.078Z,84.12
2017-10-17T21:24:09.384Z,84.27
2017-10-17T21:26:37.704Z,84.38
2017-10-17T21:29:06.804Z,84.40
2017-10-17T21:31:35.896Z,84.41
2017-10-17T21:34:04.995Z,84.26
2017-10-17T21:36:34.061Z,84.15
2017-10-17T21:39:02.370Z,84.11
2017-10-17T21:41:31.472Z,84.18
2017-10-17T21:44:00.557Z,84.24
2017-10-17T21:46:28.876Z,84.32
2017-10-17T21:48:57.206Z,84.48
2017-10-17T21:51:25.557Z,84.60
2017-10-17T21:53:53.870Z,84.70
2017-10-17T21:56:22.173Z,84.63
2017-10-17T21:58:51.253Z,84.49
2017-10-17T22:01:19.612Z,84.46
2017-10-17T22:03:47.981Z,84.49
2017-10-17T22:06:16.302Z,84.73
2017-10-17T22:08:44.635Z,84.96
2017-10-17T22:11:12.967Z,85.07
2017-10-17T22:13:42.053Z,85.17
2017-10-17T22:16:10.372Z,85.30
2017-10-17T22:18:39.463Z,85.33
2017-10-17T22:21:08.537Z,85.24
2017-10-17T22:23:36.841Z,85.18
2017-10-17T22:26:05.914Z,85.21
2017-10-17T22:28:34.238Z,85.30
2017-10-17T22:31:02.561Z,85.50
2017-10-17T22:33:30.968Z,85.67
2017-10-17T22:35:59.285Z,85.83
2017-10-17T22:38:27.630Z,85.91
2017-10-17T22:40:55.948Z,85.93
2017-10-17T22:43:25.048Z,85.87
2017-10-17T22:45:53.360Z,85.84
2017-10-17T22:48:21.703Z,85.86
2017-10-17T22:50:50.787Z,85.92
2017-10-17T22:53:19.110Z,86.02
2017-10-17T22:55:47.418Z,86.15
2017-10-17T22:58:15.720Z,86.18
2017-10-17T23:00:44.046Z,86.21
2017-10-17T23:03:13.352Z,86.31
2017-10-17T23:05:41.732Z,86.37
2017-10-17T23:08:10.048Z,86.44
2017-10-17T23:10:38.366Z,86.58
2017-10-17T23:13:07.450Z,86.82
2017-10-17T23:15:35.774Z,86.90
2017-10-17T23:18:21.968Z,86.96
2017-10-17T23:20:50.292Z,87.03
2017-10-17T23:23:18.624Z,87.10
2017-10-17T23:25:46.930Z,87.16
2017-10-17T23:28:15.243Z,87.24
2017-10-17T23:30:43.548Z,87.37
2017-10-17T23:33:11.873Z,87.47
2017-10-17T23:35:40.204Z,87.62
2017-10-17T23:38:09.277Z,87.74
2017-10-17T23:40:37.614Z,87.87
2017-10-17T23:43:05.930Z,87.91
2017-10-17T23:45:34.247Z,87.96
2017-10-17T23:48:07.974Z,88.12
2017-10-17T23:50:36.673Z,88.27
2017-10-17T23:53:04.991Z,88.34
2017-10-17T23:55:33.312Z,88.36
2017-10-17T23:58:04.433Z,88.27
